createdAt,value
2022-11-02T00:13:39.940Z,11.11
2022-11-02T00:21:00.742Z,11.06
2022-11-02T00:50:24.570Z,10.91
2022-11-02T00:55:45.977Z,10.88
2022-11-02T01:01:08.217Z,10.87
2022-11-02T01:06:32.269Z,10.86
2022-11-02T01:11:54.057Z,10.81
2022-11-02T01:17:16.271Z,10.80
2022-11-02T01:22:38.159Z,10.79
2022-11-02T01:28:00.020Z,10.76
2022-11-02T01:33:23.222Z,10.75
2022-11-02T01:39:42.853Z,10.74
2022-11-02T01:45:17.053Z,10.71
2022-11-02T01:51:18.555Z,10.71
2022-11-02T02:03:57.524Z,10.65
2022-11-02T02:09:37.383Z,10.61
2022-11-02T02:15:25.756Z,10.57
2022-11-02T02:22:06.891Z,10.49
2022-11-02T03:35:03.509Z,10.62
2022-11-02T03:40:58.929Z,10.68
2022-11-02T03:46:49.689Z,10.79
2022-11-02T04:01:54.406Z,10.84
2022-11-02T04:31:02.375Z,10.86
2022-11-02T04:36:44.083Z,10.79
2022-11-02T04:42:11.095Z,10.75
2022-11-02T04:48:16.721Z,10.69
2022-11-02T04:54:30.287Z,10.59
2022-11-02T05:00:08.387Z,10.55
2022-11-02T05:05:57.539Z,10.50
2022-11-02T05:11:52.816Z,10.40
2022-11-02T05:18:18.616Z,10.35
2022-11-02T05:23:57.043Z,10.31
2022-11-02T05:36:48.421Z,10.37
2022-11-02T05:42:17.673Z,10.41
2022-11-02T05:56:04.425Z,10.59
2022-11-02T06:16:23.644Z,10.90
2022-11-02T06:22:41.463Z,10.89
2022-11-02T06:35:49.357Z,11.05
2022-11-02T06:41:39.552Z,11.09
2022-11-02T06:47:53.085Z,11.13
2022-11-02T06:53:45.523Z,11.13
2022-11-02T06:59:06.487Z,11.16
2022-11-02T07:04:27.548Z,11.22
2022-11-02T07:09:48.252Z,11.30
2022-11-02T07:15:09.429Z,11.36
2022-11-02T07:20:51.111Z,11.48
2022-11-02T07:27:08.408Z,11.57
2022-11-02T07:32:38.085Z,11.71
2022-11-02T07:38:02.430Z,11.85
2022-11-02T07:43:23.530Z,11.94
2022-11-02T07:49:05.385Z,11.95
2022-11-02T07:54:26.694Z,12.03
2022-11-02T07:59:47.822Z,12.14
2022-11-02T08:05:08.661Z,12.21
2022-11-02T08:10:35.503Z,12.36
2022-11-02T08:16:02.262Z,12.45
2022-11-02T08:21:32.610Z,12.59
2022-11-02T08:26:54.877Z,12.75
2022-11-02T08:32:15.809Z,12.81
2022-11-02T08:51:36.663Z,12.83
2022-11-02T08:57:37.384Z,12.90
2022-11-02T09:03:25.972Z,12.92
2022-11-02T09:09:10.685Z,12.98
2022-11-02T09:15:08.177Z,12.97
2022-11-02T09:20:53.831Z,12.84
2022-11-02T09:26:35.808Z,12.79
2022-11-02T09:32:42.070Z,12.81
2022-11-02T09:38:23.649Z,12.91
2022-11-02T09:44:01.266Z,12.99
2022-11-02T09:49:25.231Z,13.16
2022-11-02T09:54:50.423Z,13.31
2022-11-02T10:00:17.917Z,13.44
2022-11-02T10:05:47.656Z,13.62
2022-11-02T10:11:25.687Z,13.77
2022-11-02T10:17:35.387Z,13.88
2022-11-02T10:23:03.965Z,14.05
2022-11-02T10:28:34.338Z,14.17
2022-11-02T10:33:58.278Z,14.29
2022-11-02T10:39:30.399Z,14.42
2022-11-02T10:45:02.079Z,14.53
2022-11-02T10:50:58.623Z,14.67
2022-11-02T10:56:21.184Z,14.79
2022-11-02T11:02:02.635Z,14.95
2022-11-02T11:07:27.227Z,15.03
2022-11-02T11:12:47.845Z,15.11
2022-11-02T11:24:18.421Z,15.23
2022-11-02T11:29:45.395Z,15.37
2022-11-02T11:35:17.858Z,15.45
2022-11-02T11:40:43.310Z,15.57
2022-11-02T11:46:07.254Z,15.63
2022-11-02T11:51:33.755Z,15.71
2022-11-02T11:56:59.654Z,15.80
2022-11-02T12:02:27.776Z,15.95
2022-11-02T12:08:29.054Z,16.10
2022-11-02T12:14:02.931Z,16.26
2022-11-02T12:19:33.828Z,16.41
2022-11-02T12:25:33.174Z,16.67
2022-11-02T12:31:27.050Z,17.03
2022-11-02T12:43:13.588Z,17.29
2022-11-02T12:48:50.532Z,17.46
2022-11-02T12:54:19.755Z,17.36
2022-11-02T12:59:43.685Z,17.43
2022-11-02T13:05:20.863Z,17.53
2022-11-02T13:10:53.465Z,17.38
2022-11-02T13:16:17.380Z,17.44
2022-11-02T13:21:44.298Z,17.47
2022-11-02T13:27:34.891Z,17.14
2022-11-02T13:33:03.115Z,16.89
2022-11-02T13:38:32.108Z,16.63
2022-11-02T13:44:22.527Z,16.50
2022-11-02T13:49:49.393Z,16.61
2022-11-02T13:55:18.463Z,16.93
2022-11-02T14:00:45.607Z,16.97
2022-11-02T14:06:15.147Z,16.84
2022-11-02T14:11:47.914Z,16.76
2022-11-02T14:17:28.771Z,16.85
2022-11-02T14:23:14.419Z,16.90
2022-11-02T14:28:42.784Z,16.47
2022-11-02T14:34:26.147Z,15.98
2022-11-02T14:39:52.338Z,15.72
2022-11-02T14:45:48.266Z,15.51
2022-11-02T14:51:35.498Z,15.21
2022-11-02T14:57:18.444Z,15.01
2022-11-02T15:02:43.070Z,14.84
2022-11-02T15:08:21.787Z,14.69
2022-11-02T15:13:47.360Z,14.51
2022-11-02T15:19:49.168Z,14.37
2022-11-02T15:25:11.016Z,14.30
2022-11-02T15:30:32.658Z,14.25
2022-11-02T15:35:54.911Z,14.17
2022-11-02T15:41:44.548Z,14.05
2022-11-02T15:47:43.884Z,13.91
2022-11-02T15:53:24.332Z,13.75
2022-11-02T15:59:07.097Z,13.62
2022-11-02T16:04:27.524Z,13.51
2022-11-02T16:09:48.464Z,13.37
2022-11-02T16:15:18.290Z,13.25
2022-11-02T16:20:39.761Z,13.08
2022-11-02T16:26:28.019Z,12.90
2022-11-02T16:32:50.571Z,12.76
2022-11-02T16:39:35.014Z,12.57
2022-11-02T16:45:34.877Z,12.45
2022-11-02T16:51:06.362Z,12.39
2022-11-02T16:56:31.919Z,12.26
2022-11-02T17:01:59.889Z,12.14
2022-11-02T17:07:30.256Z,12.01
2022-11-02T17:12:52.045Z,11.87
2022-11-02T17:19:15.900Z,11.73
2022-11-02T17:26:07.719Z,11.66
2022-11-02T17:32:48.993Z,11.58
2022-11-02T17:39:15.545Z,11.50
2022-11-02T17:46:01.614Z,11.39
2022-11-02T17:51:42.795Z,11.29
2022-11-02T17:57:15.091Z,11.29
2022-11-02T18:02:36.174Z,11.37
2022-11-02T18:08:57.057Z,11.41
2022-11-02T18:15:39.208Z,11.43
2022-11-02T18:21:53.592Z,11.39
2022-11-02T18:27:40.630Z,11.31
2022-11-02T18:34:03.773Z,11.22
2022-11-02T18:40:32.792Z,11.12
2022-11-02T18:47:16.590Z,11.06
2022-11-02T18:53:50.635Z,11.07
2022-11-02T19:00:14.869Z,11.08
2022-11-02T19:06:58.332Z,11.07
2022-11-02T19:13:25.094Z,11.02
2022-11-02T19:18:52.208Z,10.99
2022-11-02T19:25:17.324Z,10.95
2022-11-02T19:32:01.257Z,10.88
2022-11-02T19:38:46.362Z,10.91
2022-11-02T19:45:30.774Z,10.93
2022-11-02T19:52:14.059Z,10.90
2022-11-02T19:58:56.227Z,10.85
2022-11-02T20:04:42.332Z,10.77
2022-11-02T20:10:05.355Z,10.71
2022-11-02T20:16:28.481Z,10.69
2022-11-02T20:23:11.321Z,10.67
2022-11-02T20:29:56.531Z,10.63
2022-11-02T20:36:38.102Z,10.57
2022-11-02T20:43:22.828Z,10.54
2022-11-02T20:50:08.086Z,10.60
2022-11-02T20:56:50.832Z,10.62
2022-11-02T21:03:32.945Z,10.61
2022-11-02T21:10:16.377Z,10.54
2022-11-02T21:17:00.431Z,10.45
2022-11-02T21:22:38.858Z,10.44
2022-11-02T21:28:00.572Z,10.44
2022-11-02T21:33:21.450Z,10.41
2022-11-02T21:38:44.525Z,10.34
2022-11-02T21:44:45.861Z,10.28
2022-11-02T21:50:29.717Z,10.29
2022-11-02T21:56:41.135Z,10.31
2022-11-02T22:02:02.807Z,10.29
2022-11-02T22:07:23.736Z,10.22
2022-11-02T22:13:03.320Z,10.13
2022-11-02T22:18:24.130Z,10.07
2022-11-02T22:23:46.706Z,10.00
2022-11-02T22:29:07.722Z,9.89
2022-11-02T22:34:28.138Z,9.78
2022-11-02T22:39:48.691Z,9.65
2022-11-02T22:45:10.000Z,9.62
2022-11-02T22:50:30.516Z,9.62
2022-11-02T22:56:12.782Z,9.59
2022-11-02T23:01:36.067Z,9.53
2022-11-02T23:06:57.257Z,9.47
2022-11-02T23:12:17.494Z,9.41
2022-11-02T23:17:38.384Z,9.31
2022-11-02T23:23:17.644Z,9.19
2022-11-02T23:28:59.040Z,9.10
2022-11-02T23:34:20.019Z,9.02
2022-11-02T23:40:47.743Z,8.85
2022-11-02T23:47:39.221Z,8.67
2022-11-02T23:54:02.140Z,8.61
